Townsville, Queensland

6:02 PM AEST on October 02, 2014 (GMT +1000)
Townsville Airport (Garbutt) | Change Station
CLOSE
Current Station
Personal Weather Station
Location: Garbutt, QUEENSLAND
Elevation: 20 ft
Nearby Weather Stations

Elev 20 ft 19.26 °S, 146.77 °E | Updated 53 seconds ago

Partly Cloudy
Partly Cloudy
75.6 °F
Feels Like 78 °F
N
13.7
Wind Variable Wind from ENE
Gusts 16.2 mph

Today
High -- | Low -- °F
--% Chance of Precip.
Yesterday
High -- | Low -- °F
Precip. -- in
5:54 AM 6:10 PM
First Quarter, 56% visible
Pressure 29.98 in
Visibility 6.2 miles
Clouds Few 4500 ft
Heat Index 78 °F
Dew Point 61 °F
Humidity 61%
Rainfall 0.00 in
Snow Depth Not available.
UV 0 out of 12
Pollen Not available.
Air Quality Not available.
Flu Activity Not available.
METAR YBTL 020730Z 05011KT 9999 FEW045 25/16 Q1015 RMK LOCAL SMOKE TO NE

More Conditions Fewer Conditions

Pressure 29.98 in
Visibility 6.2 miles
Clouds Few 4500 ft
Heat Index 78 °F
Dew Point 61 °F
Humidity 61%
Rainfall 0.00 in
Snow Depth Not available.
UV 0 out of 12
Pollen Not available.
Air Quality Not available.
Flu Activity Not available.
METAR YBTL 020730Z 05011KT 9999 FEW045 25/16 Q1015 RMK LOCAL SMOKE TO NE

More Conditions Fewer Conditions

10-Day Weather Forecast

Almanac

Astronomy

Oct. 02, 2014 Rise Set
Actual Time 5:54 AM AEST 6:10 PM AEST
Civil Twilight 5:32 AM AEST 6:32 PM AEST
Nautical Twilight 5:06 AM AEST 6:58 PM AEST
Astronomical Twilight 4:41 AM AEST 7:24 PM AEST
Moon 11:57 AM AEST 12:21 AM AEST
Length of Visible Light 13h 00m
Length of Day
12h 16m
Tomorrow will be 1m 6s longer.
First Quarter, 56% of the Moon is Illuminated
Today
First Quarter
Oct 8
Full
Oct 15
Last Quarter
Oct 23
New
Oct 30
First Quarter

Yesterday's Extremes

Country Highs Country Lows

Community

WunderPhotos

Upload Photos

1,758,196 photos uploaded!

WunderBlogs® & News

By Dr. Jeff Masters
Director of Meteorology, Weather Underground
By Kari Strenfel
Meteorologist, Weather Underground
By Christopher C. Burt
Weather Historian, Weather Underground
October 2, 2014
October 2, 2014
October 2, 2014

Nearby

Snow Depth

Not available.

Earthquake Activity

City Distance Mag. Time & Date
No recent earthquake activity has been reported nearby.
Minimum magnitude displayed is 2.5.

Coastal Water Temperatures

Place Temperature
No Stations Reporting

Nearby Weather Stations